createdAt,value
2024-05-09T00:00:18.159Z,29.90
2024-05-09T00:01:10.874Z,30.50
2024-05-09T00:02:10.957Z,31.10
2024-05-09T00:03:11.923Z,31.40
2024-05-09T00:04:10.904Z,31.60
2024-05-09T00:05:11.154Z,31.20
2024-05-09T00:06:10.943Z,31.30
2024-05-09T00:07:10.713Z,32.50
2024-05-09T00:08:11.063Z,31.60
2024-05-09T00:09:10.702Z,31.80
2024-05-09T00:10:18.263Z,32.20
2024-05-09T00:11:10.909Z,32.50
2024-05-09T00:12:10.822Z,32.80
2024-05-09T00:13:11.248Z,32.80
2024-05-09T00:14:10.778Z,33.10
2024-05-09T00:15:10.627Z,32.80
2024-05-09T00:16:10.657Z,32.20
2024-05-09T00:17:10.652Z,32.60
2024-05-09T00:18:10.693Z,32.20
2024-05-09T00:19:10.747Z,33.40
2024-05-09T00:20:17.588Z,32.60
2024-05-09T00:21:10.615Z,32.40
2024-05-09T00:22:10.577Z,32.50
2024-05-09T00:23:11.784Z,32.00
2024-05-09T00:24:10.543Z,32.60
2024-05-09T00:25:10.518Z,33.50
2024-05-09T00:26:10.539Z,33.40
2024-05-09T00:27:12.672Z,34.20
2024-05-09T00:28:10.495Z,34.10
2024-05-09T00:29:10.583Z,34.00
2024-05-09T00:30:17.427Z,34.70
2024-05-09T00:31:10.459Z,34.30
2024-05-09T00:32:10.644Z,33.80
2024-05-09T00:33:11.525Z,34.40
2024-05-09T00:34:10.473Z,34.90
2024-05-09T00:35:10.421Z,34.90
2024-05-09T00:36:10.406Z,34.60
2024-05-09T00:37:10.386Z,33.70
2024-05-09T00:38:10.475Z,34.30
2024-05-09T00:39:10.404Z,33.50
2024-05-09T00:40:18.286Z,32.90
2024-05-09T00:41:10.435Z,32.90
2024-05-09T00:42:10.315Z,34.20
2024-05-09T00:43:10.686Z,34.00
2024-05-09T00:44:10.354Z,34.80
2024-05-09T00:45:10.322Z,33.80
2024-05-09T00:46:10.301Z,33.90
2024-05-09T00:47:10.385Z,34.80
2024-05-09T00:48:11.599Z,34.80
2024-05-09T00:49:10.374Z,35.20
2024-05-09T00:50:15.946Z,35.10
2024-05-09T00:51:10.420Z,33.90
2024-05-09T00:52:10.241Z,33.40
2024-05-09T00:53:10.334Z,34.60
2024-05-09T00:54:10.225Z,34.40
2024-05-09T00:55:10.264Z,33.10
2024-05-09T00:56:10.215Z,33.70
2024-05-09T00:57:10.220Z,33.30
2024-05-09T00:58:10.192Z,34.00
2024-05-09T00:59:10.254Z,34.20
2024-05-09T01:00:22.320Z,35.30
2024-05-09T01:01:10.236Z,33.60
2024-05-09T01:02:10.249Z,33.80
2024-05-09T01:03:12.393Z,34.20
2024-05-09T01:04:10.267Z,33.50
2024-05-09T01:05:10.279Z,34.10
2024-05-09T01:06:10.181Z,34.50
2024-05-09T01:07:10.078Z,33.20
2024-05-09T01:08:10.588Z,32.60
2024-05-09T01:09:10.068Z,32.50
2024-05-09T01:10:14.336Z,33.10
2024-05-09T01:11:10.172Z,32.10
2024-05-09T01:12:10.230Z,33.00
2024-05-09T01:13:10.062Z,32.70
2024-05-09T01:14:10.049Z,32.50
2024-05-09T01:15:09.992Z,32.50
2024-05-09T01:16:10.043Z,32.30
2024-05-09T01:17:09.999Z,31.70
2024-05-09T01:18:11.005Z,30.90
2024-05-09T01:19:10.105Z,31.50
2024-05-09T01:20:12.959Z,32.50
2024-05-09T01:21:10.063Z,32.10
2024-05-09T01:22:09.952Z,31.80
2024-05-09T01:23:10.395Z,31.90
2024-05-09T01:24:09.903Z,32.50
2024-05-09T01:25:09.901Z,32.00
2024-05-09T01:26:09.937Z,32.00
2024-05-09T01:27:09.882Z,31.90
2024-05-09T01:28:09.887Z,30.90
2024-05-09T01:29:09.909Z,31.70
2024-05-09T01:30:16.949Z,31.40
2024-05-09T01:31:09.850Z,31.90
2024-05-09T01:32:09.973Z,31.00
2024-05-09T01:33:11.614Z,30.30
2024-05-09T01:34:09.851Z,31.10
2024-05-09T01:35:09.829Z,31.40
2024-05-09T01:36:09.784Z,31.50
2024-05-09T01:37:09.775Z,31.20
2024-05-09T01:38:09.999Z,31.40
2024-05-09T01:39:09.779Z,30.80
2024-05-09T01:40:14.900Z,31.40
2024-05-09T01:41:09.758Z,31.00
2024-05-09T01:42:09.722Z,30.50
2024-05-09T01:43:10.973Z,29.80
2024-05-09T01:44:09.799Z,29.60
2024-05-09T01:45:09.686Z,30.20
2024-05-09T01:46:09.685Z,29.20
2024-05-09T01:47:09.727Z,30.20
2024-05-09T01:48:10.730Z,30.10
2024-05-09T01:49:09.773Z,29.90
2024-05-09T01:50:11.060Z,30.80
2024-05-09T01:51:09.808Z,29.30
2024-05-09T01:52:09.617Z,29.60
2024-05-09T01:53:09.983Z,29.90
2024-05-09T01:54:09.629Z,29.50
2024-05-09T01:55:09.587Z,29.80
2024-05-09T01:56:09.643Z,30.60
2024-05-09T01:57:09.559Z,29.40
2024-05-09T01:58:09.877Z,29.00
2024-05-09T01:59:09.634Z,28.70
2024-05-09T02:00:10.413Z,28.90
2024-05-09T02:01:09.687Z,28.10
2024-05-09T02:02:09.655Z,28.40
2024-05-09T02:03:10.172Z,28.60
2024-05-09T02:04:09.579Z,28.00
2024-05-09T02:05:09.740Z,29.40
2024-05-09T02:06:09.622Z,28.10
2024-05-09T02:07:09.460Z,28.50
2024-05-09T02:08:09.502Z,28.40
2024-05-09T02:09:09.424Z,27.80
2024-05-09T02:10:16.200Z,28.30
2024-05-09T02:11:09.601Z,28.70
2024-05-09T02:12:09.588Z,28.90
2024-05-09T02:13:09.454Z,27.60
2024-05-09T02:14:09.413Z,27.40
2024-05-09T02:15:09.402Z,27.90
2024-05-09T02:16:09.394Z,28.40
2024-05-09T02:17:09.460Z,27.80
2024-05-09T02:18:09.525Z,29.20
2024-05-09T02:19:09.442Z,28.30
2024-05-09T02:20:13.254Z,28.20
2024-05-09T02:21:09.502Z,29.00
2024-05-09T02:22:09.334Z,28.90
2024-05-09T02:23:09.764Z,28.80
2024-05-09T02:24:09.275Z,27.90
2024-05-09T02:25:09.318Z,28.40
2024-05-09T02:26:09.299Z,29.20
2024-05-09T02:27:09.363Z,29.60
2024-05-09T02:28:09.227Z,28.80
2024-05-09T02:29:09.321Z,27.50
2024-05-09T02:30:18.528Z,28.10
2024-05-09T02:31:09.202Z,27.80
2024-05-09T02:32:09.230Z,27.00
2024-05-09T02:33:10.956Z,27.10
2024-05-09T02:34:09.279Z,27.50
2024-05-09T02:35:09.239Z,28.80
2024-05-09T02:36:09.179Z,29.20
2024-05-09T02:37:09.137Z,29.90
2024-05-09T02:38:09.220Z,29.80
2024-05-09T02:39:09.157Z,29.70
2024-05-09T02:40:11.639Z,29.90
2024-05-09T02:41:09.149Z,30.60
2024-05-09T02:42:09.099Z,29.60
2024-05-09T02:43:10.824Z,30.30
2024-05-09T02:44:09.103Z,29.70
2024-05-09T02:45:09.110Z,30.00
2024-05-09T02:46:09.058Z,29.80
2024-05-09T02:47:09.176Z,30.10
2024-05-09T02:48:09.146Z,30.50
2024-05-09T02:49:09.185Z,29.70
2024-05-09T02:50:13.226Z,30.50
2024-05-09T02:51:09.086Z,30.00
2024-05-09T02:52:08.997Z,31.00
2024-05-09T02:53:09.853Z,29.70
2024-05-09T02:54:08.961Z,30.80
2024-05-09T02:55:08.998Z,30.20
2024-05-09T02:56:09.047Z,31.00
2024-05-09T02:57:08.946Z,30.20
2024-05-09T02:58:08.951Z,30.10
2024-05-09T02:59:09.039Z,29.50
2024-05-09T03:00:15.187Z,30.30
2024-05-09T03:01:09.005Z,29.70
2024-05-09T03:02:08.978Z,30.30
2024-05-09T03:03:10.601Z,30.60
2024-05-09T03:04:09.060Z,30.10
2024-05-09T03:05:08.940Z,29.70
2024-05-09T03:06:08.810Z,29.80
2024-05-09T03:07:08.878Z,30.40
2024-05-09T03:08:09.057Z,30.80
2024-05-09T03:09:08.823Z,29.70
2024-05-09T03:10:18.159Z,30.30
2024-05-09T03:11:08.948Z,31.10
2024-05-09T03:12:08.907Z,29.60
2024-05-09T03:13:09.147Z,30.10
2024-05-09T03:14:08.783Z,29.70
2024-05-09T03:15:08.761Z,31.50
2024-05-09T03:16:08.729Z,31.00
2024-05-09T03:17:08.850Z,31.80
2024-05-09T03:18:08.975Z,30.90
2024-05-09T03:19:08.895Z,29.90
2024-05-09T03:20:17.286Z,28.40
2024-05-09T03:21:08.921Z,28.70
2024-05-09T03:22:08.710Z,27.90
2024-05-09T03:23:09.971Z,27.40
2024-05-09T03:24:08.679Z,26.80
2024-05-09T03:25:08.667Z,28.00
2024-05-09T03:26:08.705Z,27.00
2024-05-09T03:27:08.631Z,28.70
2024-05-09T03:28:08.644Z,30.50
2024-05-09T03:29:08.670Z,30.90
2024-05-09T03:30:09.972Z,30.70
2024-05-09T03:31:08.582Z,31.00
2024-05-09T03:32:08.670Z,30.50
2024-05-09T03:33:08.753Z,31.00
2024-05-09T03:34:08.616Z,30.20
2024-05-09T03:35:08.638Z,29.10
2024-05-09T03:36:11.199Z,30.70
2024-05-09T03:37:08.512Z,31.20
2024-05-09T03:38:08.676Z,30.30
2024-05-09T03:39:08.509Z,30.10
2024-05-09T03:40:14.483Z,30.70
2024-05-09T03:41:08.551Z,31.70
2024-05-09T03:42:08.496Z,31.90
2024-05-09T03:43:08.465Z,30.90
2024-05-09T03:44:08.508Z,31.10
2024-05-09T03:45:08.435Z,29.80
2024-05-09T03:46:08.460Z,28.80
2024-05-09T03:47:08.482Z,28.80
2024-05-09T03:48:09.033Z,28.50
2024-05-09T03:49:08.501Z,28.50
2024-05-09T03:50:15.147Z,29.10
2024-05-09T03:51:08.706Z,29.30
2024-05-09T03:52:08.357Z,28.90
2024-05-09T03:53:08.395Z,29.90
2024-05-09T03:54:08.340Z,29.50
2024-05-09T03:55:08.364Z,30.00
2024-05-09T03:56:08.339Z,31.30
2024-05-09T03:57:08.389Z,30.30
2024-05-09T03:58:08.534Z,30.20
2024-05-09T03:59:08.370Z,29.50
2024-05-09T04:00:14.856Z,29.40
2024-05-09T04:01:08.305Z,29.20
2024-05-09T04:02:08.376Z,29.60
2024-05-09T04:03:11.011Z,29.90
2024-05-09T04:04:08.252Z,28.70
2024-05-09T04:05:08.256Z,30.00
2024-05-09T04:06:08.215Z,28.70
2024-05-09T04:07:08.247Z,29.40
2024-05-09T04:08:08.254Z,29.90
2024-05-09T04:09:08.185Z,30.30
2024-05-09T04:10:11.260Z,30.50
2024-05-09T04:11:08.249Z,30.40
2024-05-09T04:12:08.295Z,29.60
2024-05-09T04:13:08.173Z,28.30
2024-05-09T04:14:08.173Z,28.30
2024-05-09T04:15:11.197Z,28.50
2024-05-09T04:16:08.119Z,29.10
2024-05-09T04:17:08.173Z,29.40
2024-05-09T04:18:08.392Z,29.20
2024-05-09T04:19:08.137Z,28.80
2024-05-09T04:20:10.570Z,28.20
2024-05-09T04:21:08.055Z,28.50
2024-05-09T04:22:08.045Z,28.80
2024-05-09T04:23:09.036Z,27.90
2024-05-09T04:24:08.021Z,26.40
2024-05-09T04:25:08.083Z,27.20
2024-05-09T04:26:08.032Z,26.50
2024-05-09T04:27:07.990Z,26.40
2024-05-09T04:28:07.976Z,26.00
2024-05-09T04:29:08.005Z,27.00
2024-05-09T04:30:12.456Z,28.10
2024-05-09T04:31:07.996Z,27.90
2024-05-09T04:32:08.136Z,28.50
2024-05-09T04:33:10.118Z,28.30
2024-05-09T04:34:08.032Z,28.60
2024-05-09T04:35:07.967Z,28.50
2024-05-09T04:36:07.908Z,28.10
2024-05-09T04:37:07.925Z,27.70
2024-05-09T04:38:07.899Z,28.00
2024-05-09T04:39:07.888Z,27.70
2024-05-09T04:40:11.298Z,28.30
2024-05-09T04:41:07.931Z,28.10
2024-05-09T04:42:07.878Z,27.80
2024-05-09T04:43:07.826Z,28.50
2024-05-09T04:44:07.868Z,28.20
2024-05-09T04:45:07.813Z,28.90
2024-05-09T04:46:07.793Z,29.00
2024-05-09T04:47:07.852Z,28.00
2024-05-09T04:48:08.020Z,27.90
2024-05-09T04:49:07.854Z,28.90
2024-05-09T04:50:11.532Z,27.80
2024-05-09T04:51:07.850Z,28.50
2024-05-09T04:52:07.732Z,27.60
2024-05-09T04:53:09.265Z,27.30
2024-05-09T04:54:10.721Z,26.70
2024-05-09T04:55:07.717Z,27.20
2024-05-09T04:56:07.723Z,27.30
2024-05-09T04:57:07.677Z,26.70
2024-05-09T04:58:07.703Z,25.80
2024-05-09T04:59:07.776Z,26.10
2024-05-09T05:00:14.502Z,26.00
2024-05-09T05:01:07.653Z,25.60
2024-05-09T05:02:07.694Z,26.10
2024-05-09T05:03:08.762Z,26.00
2024-05-09T05:04:07.656Z,25.90
2024-05-09T05:05:07.689Z,26.40
2024-05-09T05:06:07.705Z,26.60
2024-05-09T05:07:07.581Z,26.00
2024-05-09T05:08:07.583Z,26.60
2024-05-09T05:09:07.574Z,26.20
2024-05-09T05:10:09.370Z,26.40
2024-05-09T05:11:07.641Z,26.60
2024-05-09T05:12:07.653Z,26.80
2024-05-09T05:13:07.516Z,27.00
2024-05-09T05:14:07.605Z,26.50
2024-05-09T05:15:07.508Z,25.70
2024-05-09T05:16:07.498Z,25.90
2024-05-09T05:17:07.537Z,25.90
2024-05-09T05:18:07.613Z,26.00
2024-05-09T05:19:10.824Z,26.40
2024-05-09T05:20:08.747Z,26.00
2024-05-09T05:21:07.455Z,25.90
2024-05-09T05:22:07.451Z,26.30
2024-05-09T05:23:07.531Z,26.40
2024-05-09T05:24:07.441Z,25.70
2024-05-09T05:25:07.408Z,27.20
2024-05-09T05:26:07.432Z,27.00
2024-05-09T05:27:07.362Z,25.80
2024-05-09T05:28:07.344Z,25.40
2024-05-09T05:29:07.398Z,26.00
2024-05-09T05:30:12.023Z,25.50
2024-05-09T05:31:07.350Z,25.70
2024-05-09T05:32:07.387Z,25.40
2024-05-09T05:33:07.609Z,26.20
2024-05-09T05:34:07.396Z,25.60
2024-05-09T05:35:07.306Z,25.40
2024-05-09T05:36:07.276Z,24.70
2024-05-09T05:37:07.286Z,24.80
2024-05-09T05:38:07.325Z,26.00
2024-05-09T05:39:07.278Z,25.30
2024-05-09T05:40:09.391Z,24.90
2024-05-09T05:41:07.249Z,25.10
2024-05-09T05:42:07.227Z,26.00
2024-05-09T05:43:07.197Z,25.10
2024-05-09T05:44:07.271Z,25.10
2024-05-09T05:45:09.651Z,24.50
2024-05-09T05:46:07.165Z,24.60
2024-05-09T05:47:07.183Z,24.60
2024-05-09T05:48:07.826Z,24.50
2024-05-09T05:49:07.214Z,25.10
2024-05-09T05:50:14.466Z,24.50
2024-05-09T05:51:07.197Z,22.80
2024-05-09T05:52:07.100Z,23.10
2024-05-09T05:53:08.260Z,24.70
2024-05-09T05:54:07.122Z,24.20
2024-05-09T05:55:07.085Z,24.90
2024-05-09T05:56:07.166Z,23.70
2024-05-09T05:57:07.118Z,23.00
2024-05-09T05:58:07.044Z,24.50
2024-05-09T05:59:07.084Z,24.50
2024-05-09T06:00:09.608Z,23.60
2024-05-09T06:01:07.035Z,23.70
2024-05-09T06:02:07.148Z,23.60
2024-05-09T06:03:07.170Z,22.90
2024-05-09T06:04:07.023Z,22.00
2024-05-09T06:05:07.056Z,22.30
2024-05-09T06:06:07.042Z,22.20
2024-05-09T06:07:07.016Z,21.20
2024-05-09T06:08:07.102Z,21.10
2024-05-09T06:09:06.920Z,19.70
2024-05-09T06:10:11.462Z,21.40
2024-05-09T06:11:06.978Z,20.70
2024-05-09T06:12:06.973Z,17.00
2024-05-09T06:13:06.911Z,16.40
2024-05-09T06:14:06.924Z,19.50
2024-05-09T06:15:06.866Z,17.60
2024-05-09T06:16:06.852Z,16.20
2024-05-09T06:17:06.986Z,18.80
2024-05-09T06:18:07.103Z,16.20
2024-05-09T06:19:06.937Z,16.70
2024-05-09T06:20:13.287Z,17.40
2024-05-09T06:21:06.846Z,18.00
2024-05-09T06:22:06.791Z,14.40
2024-05-09T06:23:07.170Z,19.20
2024-05-09T06:24:06.870Z,17.10
2024-05-09T06:25:06.780Z,17.90
2024-05-09T06:26:06.744Z,19.10
2024-05-09T06:27:06.797Z,19.20
2024-05-09T06:28:06.839Z,17.90
2024-05-09T06:29:06.792Z,18.10
2024-05-09T06:30:09.877Z,18.20
2024-05-09T06:31:06.709Z,17.80
2024-05-09T06:32:06.826Z,19.20
2024-05-09T06:33:06.872Z,17.70
2024-05-09T06:34:06.759Z,18.70
2024-05-09T06:35:06.800Z,18.80
2024-05-09T06:36:06.636Z,17.90
2024-05-09T06:37:06.625Z,18.70
2024-05-09T06:38:06.691Z,18.50
2024-05-09T06:39:06.622Z,18.90
2024-05-09T06:40:07.616Z,19.50
2024-05-09T06:41:06.665Z,17.50
2024-05-09T06:42:06.599Z,17.80
2024-05-09T06:43:06.559Z,17.90
2024-05-09T06:44:06.590Z,17.40
2024-05-09T06:45:06.578Z,17.30
2024-05-09T06:46:06.560Z,15.60
2024-05-09T06:47:06.673Z,17.00
2024-05-09T06:48:06.818Z,16.50
2024-05-09T06:49:06.644Z,18.50
2024-05-09T06:50:13.098Z,17.50
2024-05-09T06:51:06.538Z,16.40
2024-05-09T06:52:06.450Z,15.90
2024-05-09T06:53:06.654Z,16.10
2024-05-09T06:54:06.512Z,16.10
2024-05-09T06:55:06.438Z,13.60
2024-05-09T06:56:06.432Z,14.00
2024-05-09T06:57:06.461Z,14.60
2024-05-09T06:58:06.702Z,15.60
2024-05-09T06:59:06.451Z,15.40
2024-05-09T07:01:06.429Z,15.30
2024-05-09T07:02:06.475Z,14.70
2024-05-09T07:03:06.503Z,14.60
2024-05-09T07:04:06.532Z,15.10
2024-05-09T07:05:06.506Z,14.40
2024-05-09T07:06:06.389Z,13.40
2024-05-09T07:07:06.376Z,13.00
2024-05-09T07:08:06.348Z,12.70
2024-05-09T07:09:06.290Z,13.60
2024-05-09T07:10:09.929Z,12.90
2024-05-09T07:11:06.339Z,13.80
2024-05-09T07:12:06.380Z,13.50
2024-05-09T07:13:06.234Z,11.70
2024-05-09T07:14:06.333Z,12.30
2024-05-09T07:15:06.232Z,11.80
2024-05-09T07:16:06.271Z,11.20
2024-05-09T07:17:06.388Z,11.10
2024-05-09T07:18:06.420Z,10.90
2024-05-09T07:19:06.412Z,12.80
2024-05-09T07:20:08.990Z,12.30
2024-05-09T07:21:06.270Z,11.60
2024-05-09T07:22:06.128Z,10.80
2024-05-09T07:23:06.189Z,10.90
2024-05-09T07:24:06.137Z,11.80
2024-05-09T07:25:06.112Z,12.10
2024-05-09T07:26:06.139Z,11.00
2024-05-09T07:27:06.189Z,11.30
2024-05-09T07:28:06.100Z,11.60
2024-05-09T07:29:06.156Z,10.40
2024-05-09T07:30:07.335Z,11.10
2024-05-09T07:31:06.067Z,10.90
2024-05-09T07:32:06.123Z,10.20
2024-05-09T07:33:06.288Z,10.70
2024-05-09T07:34:06.154Z,10.70
2024-05-09T07:35:06.081Z,10.40
2024-05-09T07:36:05.999Z,10.70
2024-05-09T07:37:06.009Z,10.50
2024-05-09T07:38:06.089Z,11.10
2024-05-09T07:39:05.974Z,11.20
2024-05-09T07:40:07.615Z,10.30
2024-05-09T07:41:06.016Z,9.80
2024-05-09T07:42:05.962Z,9.60
2024-05-09T07:43:05.918Z,9.10
2024-05-09T07:44:05.969Z,8.90
2024-05-09T07:45:21.564Z,8.80
2024-05-09T07:47:04.509Z,9.20
2024-05-09T07:50:00.952Z,9.90
2024-05-09T07:53:21.098Z,11.10
2024-05-09T07:53:47.536Z,11.60
2024-05-09T07:53:59.565Z,10.60
2024-05-09T07:54:54.856Z,9.60
2024-05-09T07:55:55.254Z,10.50
2024-05-09T07:56:55.207Z,11.00
2024-05-09T07:57:54.692Z,10.20
2024-05-09T07:58:54.769Z,9.80
2024-05-09T07:59:54.633Z,10.30
2024-05-09T08:00:54.874Z,11.50
2024-05-09T08:01:54.739Z,11.60
2024-05-09T08:02:54.625Z,10.90
2024-05-09T08:03:54.864Z,11.20
2024-05-09T08:04:54.721Z,12.20
2024-05-09T08:05:54.667Z,12.50
2024-05-09T08:06:54.649Z,12.00
2024-05-09T08:07:54.592Z,11.10
2024-05-09T08:08:54.585Z,11.30
2024-05-09T08:09:54.582Z,10.60
2024-05-09T08:10:54.595Z,10.30
2024-05-09T08:11:54.541Z,11.20
2024-05-09T08:12:54.544Z,11.70
2024-05-09T08:13:54.497Z,10.80
2024-05-09T08:14:54.519Z,10.80
2024-05-09T08:15:54.485Z,10.50
2024-05-09T08:16:54.559Z,10.70
2024-05-09T08:17:54.715Z,11.90
2024-05-09T08:18:54.512Z,11.50
2024-05-09T08:19:54.446Z,11.60
2024-05-09T08:20:54.407Z,11.50
2024-05-09T08:21:54.443Z,11.20
2024-05-09T08:22:54.384Z,11.00
2024-05-09T08:23:54.399Z,11.90
2024-05-09T08:24:54.444Z,11.60
2024-05-09T08:25:54.370Z,12.40
2024-05-09T08:26:54.365Z,11.20
2024-05-09T08:27:54.378Z,11.00
2024-05-09T08:28:54.345Z,11.50
2024-05-09T08:29:54.361Z,11.30
2024-05-09T08:30:54.428Z,11.40
2024-05-09T08:31:54.350Z,11.20
2024-05-09T08:32:54.370Z,11.20
2024-05-09T08:33:54.467Z,10.80
2024-05-09T08:34:54.384Z,10.70
2024-05-09T08:35:54.276Z,10.40
2024-05-09T08:36:55.139Z,10.20
2024-05-09T08:37:54.286Z,10.40
2024-05-09T08:38:54.216Z,10.00
2024-05-09T08:39:54.240Z,10.70
2024-05-09T08:40:54.272Z,11.00
2024-05-09T08:41:54.187Z,10.70
2024-05-09T08:42:54.244Z,10.60
2024-05-09T08:43:54.193Z,10.80
2024-05-09T08:44:54.162Z,10.20
2024-05-09T08:45:54.250Z,10.00
2024-05-09T08:46:54.176Z,9.70
2024-05-09T08:47:54.177Z,10.50
2024-05-09T08:48:54.238Z,10.10
2024-05-09T08:49:54.153Z,10.70
2024-05-09T08:50:54.195Z,10.70
2024-05-09T08:51:54.211Z,10.50
2024-05-09T08:52:54.084Z,10.80
2024-05-09T08:53:54.066Z,10.00
2024-05-09T08:54:54.304Z,10.40
2024-05-09T08:55:54.042Z,10.20
2024-05-09T08:56:54.051Z,9.30
2024-05-09T08:57:54.110Z,9.60
2024-05-09T08:58:54.002Z,9.30
2024-05-09T08:59:54.004Z,9.60
2024-05-09T09:00:54.111Z,9.60
2024-05-09T09:01:54.063Z,8.30
2024-05-09T09:02:54.001Z,8.80
2024-05-09T09:03:54.213Z,8.90
2024-05-09T09:04:54.019Z,9.30
2024-05-09T09:05:54.015Z,8.80
2024-05-09T09:06:56.339Z,8.60
2024-05-09T09:07:53.922Z,8.70
2024-05-09T09:08:53.962Z,8.60
2024-05-09T09:09:53.907Z,7.80
2024-05-09T09:10:53.904Z,8.30
2024-05-09T09:11:53.997Z,7.70
2024-05-09T09:12:53.904Z,7.90
2024-05-09T09:13:53.866Z,8.10
2024-05-09T09:14:53.878Z,7.80
2024-05-09T09:15:53.878Z,7.50
2024-05-09T09:16:53.862Z,7.20
2024-05-09T09:17:53.930Z,7.90
2024-05-09T09:18:54.063Z,8.60
2024-05-09T09:19:53.909Z,8.00
2024-05-09T09:20:53.827Z,8.30
2024-05-09T09:21:53.899Z,7.20
2024-05-09T09:22:53.782Z,6.10
2024-05-09T09:23:53.802Z,6.60
2024-05-09T09:24:53.828Z,6.30
2024-05-09T09:25:53.840Z,6.10
2024-05-09T09:26:53.779Z,6.00
2024-05-09T09:27:53.794Z,5.80
2024-05-09T09:28:53.779Z,6.10
2024-05-09T09:29:53.758Z,6.30
2024-05-09T09:30:53.816Z,5.70
2024-05-09T09:31:53.670Z,5.60
2024-05-09T09:32:53.720Z,5.70
2024-05-09T09:33:54.067Z,5.40
2024-05-09T09:34:53.711Z,5.50
2024-05-09T09:35:53.625Z,4.90
2024-05-09T09:36:53.664Z,5.10
2024-05-09T09:37:53.625Z,5.30
2024-05-09T09:38:53.638Z,5.20
2024-05-09T09:39:53.685Z,5.70
2024-05-09T09:40:53.661Z,5.30
2024-05-09T09:41:53.566Z,5.10
2024-05-09T09:42:53.550Z,5.10
2024-05-09T09:43:53.518Z,5.20
2024-05-09T09:45:02.118Z,4.70
2024-05-09T09:45:54.034Z,4.70
2024-05-09T09:46:53.518Z,5.10
2024-05-09T09:47:53.740Z,4.80
2024-05-09T09:48:53.586Z,4.80
2024-05-09T09:49:53.508Z,5.10
2024-05-09T09:50:53.475Z,4.70
2024-05-09T09:51:53.505Z,4.90
2024-05-09T09:52:53.436Z,4.70
2024-05-09T09:53:53.454Z,4.90
2024-05-09T09:54:53.475Z,4.70
2024-05-09T09:55:53.390Z,4.80
2024-05-09T09:56:53.396Z,4.70
2024-05-09T09:57:53.502Z,4.40
2024-05-09T09:58:53.401Z,4.50
2024-05-09T09:59:53.377Z,4.50
2024-05-09T10:00:53.437Z,4.70
2024-05-09T10:01:53.414Z,4.50
2024-05-09T10:02:53.352Z,4.20
2024-05-09T10:03:53.514Z,4.10
2024-05-09T10:04:53.503Z,4.40
2024-05-09T10:05:53.372Z,4.20
2024-05-09T10:06:53.361Z,4.00
2024-05-09T10:07:53.282Z,4.20
2024-05-09T10:08:53.280Z,4.10
2024-05-09T10:09:53.314Z,4.10
2024-05-09T10:10:53.374Z,4.20
2024-05-09T10:11:59.698Z,4.10
2024-05-09T10:12:53.317Z,3.60
2024-05-09T10:13:53.225Z,3.80
2024-05-09T10:14:53.259Z,3.70
2024-05-09T10:15:53.856Z,3.90
2024-05-09T10:16:53.183Z,3.70
2024-05-09T10:17:53.361Z,3.70
2024-05-09T10:18:53.436Z,4.30
2024-05-09T10:19:53.223Z,3.90
2024-05-09T10:20:53.148Z,3.90
2024-05-09T10:21:53.177Z,3.90
2024-05-09T10:22:53.120Z,3.90
2024-05-09T10:23:53.135Z,3.90
2024-05-09T10:24:53.222Z,4.30
2024-05-09T10:25:53.143Z,3.80
2024-05-09T10:26:53.071Z,3.70
2024-05-09T10:27:53.179Z,3.80
2024-05-09T10:28:53.060Z,3.60
2024-05-09T10:29:53.081Z,3.30
2024-05-09T10:30:53.162Z,3.80
2024-05-09T10:31:53.108Z,3.60
2024-05-09T10:32:53.147Z,3.20
2024-05-09T10:33:53.427Z,3.60
2024-05-09T10:34:53.065Z,3.40
2024-05-09T10:35:53.008Z,3.50
2024-05-09T10:36:53.162Z,3.60
2024-05-09T10:37:52.983Z,3.50
2024-05-09T10:38:53.071Z,3.70
2024-05-09T10:39:53.084Z,3.50
2024-05-09T10:40:52.994Z,3.60
2024-05-09T10:41:52.935Z,3.50
2024-05-09T10:42:53.029Z,3.70
2024-05-09T10:43:52.974Z,3.40
2024-05-09T10:44:52.916Z,3.70
2024-05-09T10:45:53.014Z,3.50
2024-05-09T10:46:52.927Z,3.40
2024-05-09T10:47:53.111Z,3.60
2024-05-09T10:48:52.932Z,3.70
2024-05-09T10:49:52.952Z,3.80
2024-05-09T10:50:52.875Z,3.40
2024-05-09T10:51:52.916Z,4.20
2024-05-09T10:52:52.790Z,3.90
2024-05-09T10:53:52.798Z,3.90
2024-05-09T10:54:52.876Z,3.80
2024-05-09T10:55:52.846Z,3.80
2024-05-09T10:56:52.755Z,3.80
2024-05-09T10:57:52.815Z,4.20
2024-05-09T10:58:52.732Z,4.10
2024-05-09T10:59:52.741Z,4.10
2024-05-09T11:00:52.794Z,3.80
2024-05-09T11:01:52.809Z,4.00
2024-05-09T11:02:52.748Z,4.10
2024-05-09T11:03:52.883Z,4.40
2024-05-09T11:04:52.774Z,4.40
2024-05-09T11:05:52.803Z,4.50
2024-05-09T11:06:52.729Z,4.30
2024-05-09T11:07:52.649Z,4.10
2024-05-09T11:08:52.635Z,3.90
2024-05-09T11:09:52.679Z,3.80
2024-05-09T11:10:52.783Z,4.10
2024-05-09T11:11:52.689Z,4.30
2024-05-09T11:12:52.727Z,4.40
2024-05-09T11:13:52.599Z,4.10
2024-05-09T11:14:52.574Z,4.20
2024-05-09T11:15:52.612Z,4.50
2024-05-09T11:16:52.581Z,4.00
2024-05-09T11:17:52.756Z,4.30
2024-05-09T11:18:52.833Z,4.50
2024-05-09T11:19:52.624Z,4.70
2024-05-09T11:20:52.504Z,4.30
2024-05-09T11:21:52.596Z,4.30
2024-05-09T11:22:52.528Z,4.70
2024-05-09T11:23:52.498Z,4.50
2024-05-09T11:24:52.644Z,4.50
2024-05-09T11:25:52.431Z,4.50
2024-05-09T11:26:52.511Z,4.30
2024-05-09T11:27:52.492Z,4.80
2024-05-09T11:28:52.424Z,4.50
2024-05-09T11:29:52.447Z,4.80
2024-05-09T11:30:52.491Z,4.30
2024-05-09T11:31:52.419Z,4.00
2024-05-09T11:32:52.496Z,4.10
2024-05-09T11:33:52.511Z,4.40
2024-05-09T11:34:52.369Z,4.10
2024-05-09T11:35:52.372Z,4.40
2024-05-09T11:36:52.366Z,4.30
2024-05-09T11:37:52.346Z,4.70
2024-05-09T11:38:52.350Z,4.50
2024-05-09T11:39:52.384Z,4.20
2024-05-09T11:40:52.353Z,4.00
2024-05-09T11:41:52.292Z,4.10
2024-05-09T11:42:53.485Z,4.30
2024-05-09T11:43:52.326Z,4.20
2024-05-09T11:44:52.235Z,4.50
2024-05-09T11:45:52.297Z,4.30
2024-05-09T11:46:52.241Z,4.40
2024-05-09T11:47:52.312Z,4.20
2024-05-09T11:48:52.306Z,4.30
2024-05-09T11:49:52.259Z,4.60
2024-05-09T11:50:52.200Z,4.30
2024-05-09T11:51:52.243Z,4.60
2024-05-09T11:52:52.185Z,5.00
2024-05-09T11:53:52.176Z,4.40
2024-05-09T11:54:52.183Z,4.20
2024-05-09T11:55:52.187Z,4.20
2024-05-09T11:56:52.130Z,4.70
2024-05-09T11:57:52.194Z,4.40
2024-05-09T11:58:52.118Z,4.30
2024-05-09T11:59:52.113Z,4.20
2024-05-09T12:00:52.244Z,4.20
2024-05-09T12:01:52.191Z,4.10
2024-05-09T12:02:52.127Z,4.00
2024-05-09T12:03:52.429Z,4.10
2024-05-09T12:04:52.119Z,4.20
2024-05-09T12:05:52.228Z,4.30
2024-05-09T12:06:52.087Z,4.00
2024-05-09T12:07:52.009Z,4.20
2024-05-09T12:08:52.013Z,4.10
2024-05-09T12:09:52.028Z,4.20
2024-05-09T12:10:52.144Z,4.20
2024-05-09T12:11:51.994Z,4.40
2024-05-09T12:12:52.038Z,4.50
2024-05-09T12:13:51.950Z,4.20
2024-05-09T12:14:51.939Z,4.30
2024-05-09T12:15:51.993Z,4.40
2024-05-09T12:16:51.987Z,4.50
2024-05-09T12:17:51.984Z,4.60
2024-05-09T12:18:52.040Z,5.10
2024-05-09T12:19:51.915Z,4.50
2024-05-09T12:20:51.913Z,4.40
2024-05-09T12:21:51.914Z,4.50
2024-05-09T12:22:51.852Z,4.30
2024-05-09T12:23:51.881Z,4.40
2024-05-09T12:24:51.879Z,4.40
2024-05-09T12:25:51.849Z,4.10
2024-05-09T12:26:51.826Z,4.30
2024-05-09T12:27:51.860Z,4.40
2024-05-09T12:28:51.862Z,4.30
2024-05-09T12:29:51.780Z,4.00
2024-05-09T12:30:51.808Z,3.90
2024-05-09T12:31:51.828Z,4.10
2024-05-09T12:32:51.809Z,4.00
2024-05-09T12:33:51.989Z,4.30
2024-05-09T12:34:51.762Z,4.20
2024-05-09T12:35:51.733Z,4.10
2024-05-09T12:36:51.757Z,4.20
2024-05-09T12:37:51.719Z,4.00
2024-05-09T12:38:51.729Z,3.80
2024-05-09T12:39:51.760Z,3.90
2024-05-09T12:40:51.842Z,4.20
2024-05-09T12:41:51.687Z,3.90
2024-05-09T12:42:51.686Z,4.10
2024-05-09T12:43:51.667Z,3.70
2024-05-09T12:44:51.672Z,3.60
2024-05-09T12:45:51.635Z,4.00
2024-05-09T12:46:51.624Z,4.10
2024-05-09T12:47:51.704Z,3.70
2024-05-09T12:48:51.790Z,3.30
2024-05-09T12:49:51.629Z,3.70
2024-05-09T12:50:51.643Z,4.10
2024-05-09T12:51:51.575Z,3.60
2024-05-09T12:52:51.564Z,3.90
2024-05-09T12:53:51.553Z,3.70
2024-05-09T12:54:51.585Z,4.20
2024-05-09T12:55:56.894Z,3.50
2024-05-09T12:56:51.541Z,4.60
2024-05-09T12:57:51.542Z,4.00
2024-05-09T12:58:51.484Z,4.50
2024-05-09T12:59:51.510Z,3.80
2024-05-09T13:00:51.689Z,4.40
2024-05-09T13:01:51.556Z,5.70
2024-05-09T13:02:51.450Z,41.80
2024-05-09T13:03:51.785Z,24.00
2024-05-09T13:04:51.529Z,10.10